createdAt,value
2023-03-12T00:00:41.880Z,8.53
2023-03-12T00:03:10.532Z,5.20
2023-03-12T00:05:38.924Z,7.37
2023-03-12T00:08:07.186Z,7.70
2023-03-12T00:10:35.841Z,7.57
2023-03-12T00:13:05.219Z,9.77
2023-03-12T00:15:33.199Z,6.67
2023-03-12T00:18:01.304Z,6.07
2023-03-12T00:20:29.263Z,7.63
2023-03-12T00:22:57.208Z,8.37
2023-03-12T00:25:25.411Z,8.00
2023-03-12T00:27:53.374Z,7.57
2023-03-12T00:30:22.931Z,8.00
2023-03-12T00:32:51.130Z,8.90
2023-03-12T00:35:19.297Z,7.93
2023-03-12T00:37:47.218Z,5.63
2023-03-12T00:40:15.500Z,15.20
2023-03-12T00:42:43.637Z,6.70
2023-03-12T00:45:12.514Z,10.60
2023-03-12T00:47:41.878Z,7.70
2023-03-12T00:50:10.885Z,7.90
2023-03-12T00:52:38.865Z,8.60
2023-03-12T00:55:07.353Z,8.13
2023-03-12T00:57:35.315Z,8.20
2023-03-12T01:00:04.655Z,6.33
2023-03-12T01:02:32.590Z,9.43
2023-03-12T01:05:02.005Z,6.07
2023-03-12T01:07:30.012Z,5.30
2023-03-12T01:09:58.479Z,6.30
2023-03-12T01:12:26.895Z,10.13
2023-03-12T01:14:54.952Z,10.07
2023-03-12T01:17:22.966Z,6.80
2023-03-12T01:19:50.957Z,7.53
2023-03-12T01:22:20.278Z,9.07
2023-03-12T01:24:48.280Z,11.10
2023-03-12T01:27:16.228Z,7.07
2023-03-12T01:29:47.398Z,5.37
2023-03-12T01:32:17.042Z,10.47
2023-03-12T01:34:45.239Z,8.57
2023-03-12T01:37:13.184Z,9.73
2023-03-12T01:39:45.275Z,8.53
2023-03-12T01:42:13.191Z,10.23
2023-03-12T01:44:51.825Z,6.27
2023-03-12T01:47:19.950Z,8.03
2023-03-12T01:49:49.346Z,8.73
2023-03-12T01:52:19.953Z,7.63
2023-03-12T01:54:56.113Z,7.43
2023-03-12T01:57:27.605Z,8.23
2023-03-12T01:59:59.056Z,7.20
2023-03-12T02:02:29.831Z,5.13
2023-03-12T02:05:05.070Z,5.60
2023-03-12T02:07:35.277Z,10.10
2023-03-12T02:10:05.786Z,9.57
2023-03-12T02:12:33.899Z,9.33
2023-03-12T02:15:02.194Z,6.37
2023-03-12T02:17:31.067Z,7.70
2023-03-12T02:20:07.976Z,7.03
2023-03-12T02:22:36.860Z,6.57
2023-03-12T02:25:19.234Z,8.60
2023-03-12T02:27:48.100Z,6.30
2023-03-12T02:30:18.253Z,9.43
2023-03-12T02:32:47.612Z,8.90
2023-03-12T02:35:18.064Z,8.50
2023-03-12T02:37:50.526Z,7.20
2023-03-12T02:40:25.827Z,8.10
2023-03-12T02:42:54.660Z,9.83
2023-03-12T02:45:23.182Z,6.27
2023-03-12T02:47:51.146Z,6.87
2023-03-12T02:50:19.186Z,8.47
2023-03-12T02:52:47.175Z,7.00
2023-03-12T02:55:15.227Z,6.33
2023-03-12T02:57:44.564Z,7.63
2023-03-12T03:00:16.352Z,11.53
2023-03-12T03:02:45.105Z,8.80
2023-03-12T03:05:13.603Z,9.60
2023-03-12T03:07:41.623Z,6.33
2023-03-12T03:10:11.776Z,9.57
2023-03-12T03:12:39.715Z,10.93
2023-03-12T03:15:10.718Z,7.47
2023-03-12T03:17:38.854Z,8.50
2023-03-12T03:20:11.153Z,9.17
2023-03-12T03:22:40.006Z,10.73
2023-03-12T03:25:09.492Z,5.60
2023-03-12T03:27:37.846Z,9.57
2023-03-12T03:30:08.936Z,7.37
2023-03-12T03:32:36.991Z,12.10
2023-03-12T03:35:05.257Z,8.47
2023-03-12T03:37:33.227Z,11.57
2023-03-12T03:40:01.354Z,6.90
2023-03-12T03:42:29.331Z,11.80
2023-03-12T03:44:57.322Z,7.77
2023-03-12T03:47:26.684Z,7.80
2023-03-12T03:49:54.624Z,8.00
2023-03-12T03:52:22.560Z,8.77
2023-03-12T03:54:50.626Z,6.47
2023-03-12T03:57:18.517Z,6.80
2023-03-12T03:59:46.446Z,8.97
2023-03-12T04:02:14.490Z,10.30
2023-03-12T04:04:43.999Z,8.47
2023-03-12T04:07:12.042Z,11.00
2023-03-12T04:09:40.100Z,13.57
2023-03-12T04:12:08.593Z,8.17
2023-03-12T04:14:36.540Z,8.50
2023-03-12T04:17:04.563Z,8.37
2023-03-12T04:19:32.556Z,8.50
2023-03-12T04:22:02.087Z,12.97
2023-03-12T04:24:30.392Z,11.67
2023-03-12T04:26:59.251Z,9.27
2023-03-12T04:29:27.410Z,11.27
2023-03-12T04:31:55.408Z,11.87
2023-03-12T04:34:23.436Z,10.53
2023-03-12T04:36:51.749Z,11.77
2023-03-12T04:39:21.378Z,11.47
2023-03-12T04:41:49.452Z,12.53
2023-03-12T04:44:17.608Z,10.27
2023-03-12T04:46:46.037Z,10.83
2023-03-12T04:49:14.158Z,11.63
2023-03-12T04:51:42.140Z,12.83
2023-03-12T04:54:10.184Z,11.73
2023-03-12T04:56:39.518Z,10.60
2023-03-12T04:59:07.516Z,9.70
2023-03-12T05:01:37.168Z,10.47
2023-03-12T05:04:05.512Z,8.87
2023-03-12T05:06:33.991Z,11.47
2023-03-12T05:09:02.379Z,12.80
2023-03-12T05:11:30.390Z,12.37
2023-03-12T05:13:59.747Z,8.40
2023-03-12T05:16:28.101Z,10.03
2023-03-12T05:18:56.162Z,11.53
2023-03-12T05:21:24.118Z,11.23
2023-03-12T05:23:52.110Z,9.47
2023-03-12T05:26:22.257Z,10.80
2023-03-12T05:28:50.396Z,16.30
2023-03-12T05:31:20.623Z,12.97
2023-03-12T05:33:51.026Z,9.77
2023-03-12T05:36:21.252Z,11.43
2023-03-12T05:38:49.359Z,18.30
2023-03-12T05:41:21.312Z,12.43
2023-03-12T05:43:49.863Z,22.50
2023-03-12T05:46:19.398Z,14.67
2023-03-12T05:48:47.438Z,13.53
2023-03-12T05:51:15.588Z,14.17
2023-03-12T05:53:43.713Z,13.20
2023-03-12T05:56:14.477Z,16.00
2023-03-12T05:58:42.488Z,15.20
2023-03-12T06:01:13.954Z,14.73
2023-03-12T06:03:43.645Z,15.30
2023-03-12T06:06:12.293Z,17.50
2023-03-12T06:08:40.667Z,15.20
2023-03-12T06:11:08.850Z,16.33
2023-03-12T06:13:37.054Z,14.13
2023-03-12T06:16:06.071Z,13.27
2023-03-12T06:18:35.200Z,13.50
2023-03-12T06:21:12.798Z,13.43
2023-03-12T06:23:41.247Z,13.50
2023-03-12T06:26:09.949Z,14.20
2023-03-12T06:28:38.266Z,20.10
2023-03-12T06:31:07.215Z,16.20
2023-03-12T06:33:36.059Z,14.73
2023-03-12T06:36:06.860Z,14.73
2023-03-12T06:38:37.126Z,18.90
2023-03-12T06:41:07.818Z,14.67
2023-03-12T06:43:37.696Z,21.97
2023-03-12T06:46:06.984Z,16.97
2023-03-12T06:48:37.094Z,19.10
2023-03-12T06:51:05.602Z,18.87
2023-03-12T06:53:35.358Z,23.93
2023-03-12T06:56:03.986Z,20.47
2023-03-12T06:58:32.054Z,22.47
2023-03-12T07:01:01.480Z,21.77
2023-03-12T07:03:29.553Z,27.67
2023-03-12T07:05:58.722Z,23.37
2023-03-12T07:08:29.860Z,20.23
2023-03-12T07:11:01.686Z,22.57
2023-03-12T07:13:30.188Z,19.53
2023-03-12T07:15:58.390Z,21.37
2023-03-12T07:18:26.373Z,21.73
2023-03-12T07:20:54.740Z,22.53
2023-03-12T07:23:23.341Z,24.23
2023-03-12T07:25:52.101Z,21.07
2023-03-12T07:28:22.485Z,25.60
2023-03-12T07:30:51.196Z,26.70
2023-03-12T07:33:21.180Z,23.10
2023-03-12T07:35:51.759Z,24.90
2023-03-12T07:38:20.019Z,28.37
2023-03-12T07:40:52.359Z,27.73
2023-03-12T07:43:22.045Z,24.23
2023-03-12T07:45:50.297Z,26.20
2023-03-12T07:48:19.825Z,26.63
2023-03-12T07:50:48.624Z,25.53
2023-03-12T07:53:19.009Z,22.37
2023-03-12T07:55:48.301Z,29.93
2023-03-12T07:58:17.135Z,35.40
2023-03-12T08:00:46.659Z,30.23
2023-03-12T08:03:15.021Z,27.13
2023-03-12T08:05:43.313Z,27.07
2023-03-12T08:08:11.582Z,29.53
2023-03-12T08:10:39.681Z,32.73
2023-03-12T08:13:08.080Z,34.97
2023-03-12T08:15:36.068Z,30.73
2023-03-12T08:18:05.481Z,32.80
2023-03-12T08:20:33.556Z,37.13
2023-03-12T08:23:01.561Z,36.80
2023-03-12T08:25:29.944Z,30.87
2023-03-12T08:27:57.999Z,35.90
2023-03-12T08:30:27.806Z,31.23
2023-03-12T08:32:57.948Z,35.23
2023-03-12T08:35:27.547Z,41.10
2023-03-12T08:37:56.982Z,31.53
2023-03-12T08:40:25.326Z,34.57
2023-03-12T08:42:53.304Z,29.57
2023-03-12T08:45:21.265Z,37.07
2023-03-12T08:47:50.252Z,28.03
2023-03-12T08:50:20.579Z,30.33
2023-03-12T08:52:50.037Z,25.23
2023-03-12T08:55:18.190Z,23.47
2023-03-12T08:57:46.207Z,26.97
2023-03-12T09:00:16.222Z,21.07
2023-03-12T09:02:45.580Z,33.47
2023-03-12T09:05:14.150Z,25.73
2023-03-12T09:07:42.727Z,23.73
2023-03-12T09:10:12.696Z,29.63
2023-03-12T09:12:40.754Z,18.80
2023-03-12T09:15:10.300Z,18.20
2023-03-12T09:17:38.728Z,24.10
2023-03-12T09:20:08.904Z,26.83
2023-03-12T09:22:37.850Z,19.87
2023-03-12T09:25:08.993Z,29.23
2023-03-12T09:27:40.028Z,22.73
2023-03-12T09:30:10.734Z,15.50
2023-03-12T09:32:38.790Z,28.83
2023-03-12T09:35:08.102Z,20.80
2023-03-12T09:37:36.115Z,25.43
2023-03-12T09:40:07.625Z,34.90
2023-03-12T09:42:47.315Z,26.93
2023-03-12T09:45:18.053Z,23.77
2023-03-12T09:47:50.532Z,24.73
2023-03-12T09:50:26.910Z,31.00
2023-03-12T09:52:59.357Z,21.57
2023-03-12T09:55:29.735Z,36.87
2023-03-12T09:57:59.434Z,24.80
2023-03-12T10:00:32.731Z,34.97
2023-03-12T10:03:26.933Z,29.57
2023-03-12T10:06:05.305Z,30.33
2023-03-12T10:08:47.505Z,29.57
2023-03-12T10:11:27.146Z,27.43
2023-03-12T10:14:09.048Z,27.23
2023-03-12T10:16:51.564Z,34.53
2023-03-12T10:19:31.682Z,29.30
2023-03-12T10:22:08.163Z,34.83
2023-03-12T10:24:49.302Z,34.23
2023-03-12T10:27:19.025Z,32.93
2023-03-12T10:29:54.551Z,28.90
2023-03-12T10:32:27.415Z,38.10
2023-03-12T10:34:57.814Z,31.20
2023-03-12T10:37:30.328Z,28.60
2023-03-12T10:40:00.752Z,29.87
2023-03-12T10:42:31.108Z,30.77
2023-03-12T10:45:15.602Z,26.73
2023-03-12T10:47:45.374Z,25.37
2023-03-12T10:50:19.036Z,25.50
2023-03-12T10:52:49.185Z,30.87
2023-03-12T10:55:23.889Z,26.90
2023-03-12T10:57:52.053Z,29.37
2023-03-12T11:00:24.237Z,29.37
2023-03-12T11:03:01.089Z,30.77
2023-03-12T11:05:32.299Z,31.03
2023-03-12T11:08:02.033Z,42.47
2023-03-12T11:10:43.108Z,32.20
2023-03-12T11:13:25.768Z,32.90
2023-03-12T11:15:56.996Z,32.20
2023-03-12T11:18:28.920Z,34.47
2023-03-12T11:20:58.701Z,33.90
2023-03-12T11:23:29.986Z,32.87
2023-03-12T11:26:01.942Z,34.33
2023-03-12T11:28:37.828Z,37.63
2023-03-12T11:31:16.578Z,41.13
2023-03-12T11:33:44.726Z,33.10
2023-03-12T11:36:40.445Z,35.00
2023-03-12T11:39:16.447Z,39.67
2023-03-12T11:42:08.165Z,32.50
2023-03-12T11:44:43.066Z,31.17
2023-03-12T11:47:41.122Z,33.27
2023-03-12T11:50:19.679Z,33.17
2023-03-12T11:53:05.308Z,32.37
2023-03-12T11:55:43.735Z,31.67
2023-03-12T11:58:35.027Z,35.70
2023-03-12T12:01:11.308Z,37.40
2023-03-12T12:04:06.172Z,40.57
2023-03-12T12:06:42.213Z,38.47
2023-03-12T12:09:22.539Z,39.03
2023-03-12T12:12:07.376Z,32.47
2023-03-12T12:14:52.764Z,39.80
2023-03-12T12:17:30.682Z,29.23
2023-03-12T12:20:13.427Z,36.80
2023-03-12T12:22:51.043Z,33.20
2023-03-12T12:26:01.300Z,42.90
2023-03-12T12:28:46.576Z,39.73
2023-03-12T12:31:28.973Z,34.07
2023-03-12T12:34:10.653Z,26.17
2023-03-12T12:36:40.092Z,31.17
2023-03-12T12:39:14.344Z,46.20
2023-03-12T12:41:49.530Z,28.00
2023-03-12T12:44:21.432Z,27.17
2023-03-12T12:46:53.393Z,34.50
2023-03-12T12:49:26.725Z,36.90
2023-03-12T12:51:59.379Z,35.80
2023-03-12T12:54:34.332Z,30.10
2023-03-12T12:57:08.497Z,37.17
2023-03-12T12:59:42.016Z,44.30
2023-03-12T13:02:18.252Z,35.30
2023-03-12T13:04:47.493Z,40.57
2023-03-12T13:07:34.227Z,28.33
2023-03-12T13:10:08.590Z,32.53
2023-03-12T13:12:44.331Z,31.80
2023-03-12T13:15:34.892Z,31.80
2023-03-12T13:18:09.533Z,32.03
2023-03-12T13:20:47.920Z,23.53
2023-03-12T13:23:33.828Z,36.33
2023-03-12T13:26:07.624Z,43.57
2023-03-12T13:28:42.026Z,33.43
2023-03-12T13:31:37.569Z,23.17
2023-03-12T13:34:53.525Z,36.67
2023-03-12T13:37:49.076Z,35.97
2023-03-12T13:41:02.117Z,32.33
2023-03-12T13:43:52.675Z,39.77
2023-03-12T13:46:42.539Z,32.57
2023-03-12T13:49:19.424Z,39.90
2023-03-12T13:52:00.440Z,25.30
2023-03-12T13:54:35.828Z,35.83
2023-03-12T13:57:11.417Z,34.93
2023-03-12T13:59:46.165Z,38.40
2023-03-12T14:02:21.680Z,30.80
2023-03-12T14:04:49.892Z,38.13
2023-03-12T14:07:46.399Z,40.50
2023-03-12T14:10:26.987Z,38.77
2023-03-12T14:13:06.920Z,30.30
2023-03-12T14:15:45.969Z,45.47
2023-03-12T14:18:23.430Z,37.33
2023-03-12T14:20:57.108Z,24.87
2023-03-12T14:23:29.413Z,33.70
2023-03-12T14:26:03.915Z,33.07
2023-03-12T14:28:39.644Z,43.27
2023-03-12T14:31:14.154Z,25.07
2023-03-12T14:33:52.074Z,40.90
2023-03-12T14:36:23.974Z,39.43
2023-03-12T14:39:11.497Z,38.17
2023-03-12T14:41:46.556Z,39.83
2023-03-12T14:44:23.983Z,38.77
2023-03-12T14:47:01.914Z,34.37
2023-03-12T14:49:31.458Z,43.50
2023-03-12T14:51:59.562Z,33.80
2023-03-12T14:54:28.928Z,31.10
2023-03-12T14:56:57.019Z,40.63
2023-03-12T14:59:28.881Z,40.27
2023-03-12T15:02:02.211Z,41.50
2023-03-12T15:04:31.995Z,31.20
2023-03-12T15:07:04.522Z,33.83
2023-03-12T15:09:36.143Z,42.13
2023-03-12T15:12:07.002Z,35.50
2023-03-12T15:14:39.772Z,35.13
2023-03-12T15:17:09.558Z,31.33
2023-03-12T15:19:40.201Z,37.70
2023-03-12T15:22:12.923Z,38.60
2023-03-12T15:24:41.741Z,41.47
2023-03-12T15:27:31.713Z,29.37
2023-03-12T15:30:01.971Z,43.77
2023-03-12T15:32:31.981Z,41.60
2023-03-12T15:35:00.599Z,44.23
2023-03-12T15:37:35.280Z,37.63
2023-03-12T15:40:06.591Z,35.57
2023-03-12T15:42:41.790Z,39.67
2023-03-12T15:45:20.020Z,31.93
2023-03-12T15:47:51.066Z,38.03
2023-03-12T15:50:22.871Z,31.03
2023-03-12T15:53:02.827Z,37.53
2023-03-12T15:55:32.308Z,45.77
2023-03-12T15:58:01.297Z,49.37
2023-03-12T16:00:30.262Z,36.27
2023-03-12T16:03:01.213Z,45.00
2023-03-12T16:05:35.336Z,53.17
2023-03-12T16:08:11.234Z,44.40
2023-03-12T16:10:40.510Z,46.67
2023-03-12T16:13:11.016Z,41.53
2023-03-12T16:15:40.003Z,37.47
2023-03-12T16:18:13.823Z,39.73
2023-03-12T16:20:42.096Z,42.90
2023-03-12T16:23:10.421Z,52.70
2023-03-12T16:25:39.331Z,34.27
2023-03-12T16:28:08.227Z,43.13
2023-03-12T16:30:37.901Z,41.07
2023-03-12T16:33:09.639Z,60.93
2023-03-12T16:35:37.914Z,36.13
2023-03-12T16:38:07.215Z,57.77
2023-03-12T16:40:38.074Z,43.37
2023-03-12T16:43:08.268Z,45.50
2023-03-12T16:45:37.621Z,37.37
2023-03-12T16:48:07.518Z,42.63
2023-03-12T16:50:37.113Z,33.80
2023-03-12T16:53:05.633Z,40.20
2023-03-12T16:55:45.698Z,27.30
2023-03-12T16:58:16.261Z,34.07
2023-03-12T17:00:44.526Z,26.47
2023-03-12T17:03:20.222Z,24.13
2023-03-12T17:05:49.699Z,25.57
2023-03-12T17:08:17.794Z,17.67
2023-03-12T17:10:46.020Z,26.80
2023-03-12T17:13:22.186Z,30.43
2023-03-12T17:15:50.562Z,21.37
2023-03-12T17:18:19.267Z,15.13
2023-03-12T17:20:47.671Z,18.40
2023-03-12T17:23:17.060Z,19.77
2023-03-12T17:25:46.038Z,9.27
2023-03-12T17:28:15.362Z,17.83
2023-03-12T17:30:43.924Z,18.25
2023-03-12T17:33:14.855Z,20.03
2023-03-12T17:35:46.889Z,12.57
2023-03-12T17:38:16.344Z,18.57
2023-03-12T17:40:45.764Z,10.07
2023-03-12T17:43:13.951Z,22.67
2023-03-12T17:45:42.407Z,13.60
2023-03-12T17:48:10.436Z,22.07
2023-03-12T17:50:38.647Z,23.87
2023-03-12T17:53:07.008Z,22.27
2023-03-12T17:55:37.232Z,16.10
2023-03-12T17:58:08.467Z,22.27
2023-03-12T18:00:36.654Z,18.93
2023-03-12T18:03:04.742Z,18.30
2023-03-12T18:05:33.071Z,25.87
2023-03-12T18:08:01.129Z,24.20
2023-03-12T18:10:29.147Z,22.53
2023-03-12T18:12:58.639Z,19.77
2023-03-12T18:15:26.627Z,28.40
2023-03-12T18:17:56.749Z,27.70
2023-03-12T18:20:37.467Z,24.30
2023-03-12T18:23:06.134Z,22.27
2023-03-12T18:25:34.257Z,24.53
2023-03-12T18:28:03.764Z,20.97
2023-03-12T18:30:32.036Z,15.03
2023-03-12T18:33:00.263Z,27.23
2023-03-12T18:35:30.574Z,29.50
2023-03-12T18:37:59.016Z,19.03
2023-03-12T18:40:27.620Z,24.77
2023-03-12T18:42:58.831Z,13.33
2023-03-12T18:45:29.349Z,23.90
2023-03-12T18:47:57.713Z,15.13
2023-03-12T18:50:26.650Z,21.73
2023-03-12T18:52:54.712Z,19.90
2023-03-12T18:55:23.099Z,28.00
2023-03-12T18:57:53.004Z,18.27
2023-03-12T19:00:46.227Z,12.87
2023-03-12T19:03:36.953Z,16.80
2023-03-12T19:06:10.316Z,20.10
2023-03-12T19:08:40.370Z,15.73
2023-03-12T19:11:13.346Z,21.03
2023-03-12T19:14:07.038Z,20.87
2023-03-12T19:16:39.335Z,26.93
2023-03-12T19:19:11.799Z,21.07
2023-03-12T19:21:43.315Z,15.63
2023-03-12T19:24:16.796Z,21.47
2023-03-12T19:26:48.129Z,21.60
2023-03-12T19:29:22.072Z,22.90
2023-03-12T19:31:53.467Z,17.37
2023-03-12T19:34:25.245Z,29.10
2023-03-12T19:37:00.527Z,34.03
2023-03-12T19:39:31.144Z,27.40
2023-03-12T19:42:03.983Z,26.60
2023-03-12T19:44:39.182Z,33.30
2023-03-12T19:47:10.910Z,35.70
2023-03-12T19:49:56.521Z,29.13
2023-03-12T19:52:25.199Z,27.87
2023-03-12T19:55:03.930Z,23.83
2023-03-12T19:57:36.167Z,28.03
2023-03-12T20:00:14.669Z,30.47
2023-03-12T20:02:46.675Z,14.47
2023-03-12T20:05:19.865Z,41.07
2023-03-12T20:07:53.511Z,23.83
2023-03-12T20:10:23.777Z,28.90
2023-03-12T20:13:13.739Z,32.20
2023-03-12T20:15:47.763Z,23.20
2023-03-12T20:18:25.047Z,28.43
2023-03-12T20:20:55.357Z,26.23
2023-03-12T20:23:26.605Z,25.30
2023-03-12T20:25:57.734Z,26.70
2023-03-12T20:28:26.195Z,24.73
2023-03-12T20:31:00.119Z,22.30
2023-03-12T20:33:36.587Z,27.63
2023-03-12T20:36:12.204Z,24.13
2023-03-12T20:38:43.528Z,23.53
2023-03-12T20:41:18.605Z,25.77
2023-03-12T20:43:47.227Z,23.17
2023-03-12T20:46:21.328Z,25.73
2023-03-12T20:48:56.645Z,22.40
2023-03-12T20:51:29.390Z,27.70
2023-03-12T20:54:01.061Z,24.67
2023-03-12T20:56:31.704Z,26.03
2023-03-12T20:59:03.990Z,26.23
2023-03-12T21:01:35.210Z,24.67
2023-03-12T21:04:09.312Z,19.23
2023-03-12T21:06:46.037Z,21.37
2023-03-12T21:09:15.279Z,25.63
2023-03-12T21:11:47.913Z,23.63
2023-03-12T21:14:37.944Z,29.83
2023-03-12T21:17:13.727Z,25.47
2023-03-12T21:19:52.726Z,33.37
2023-03-12T21:22:23.857Z,23.73
2023-03-12T21:25:26.877Z,32.57
2023-03-12T21:27:58.643Z,28.93
2023-03-12T21:30:27.675Z,24.57
2023-03-12T21:32:59.832Z,27.57
2023-03-12T21:35:57.332Z,26.23
2023-03-12T21:38:49.024Z,19.57
2023-03-12T21:41:23.560Z,22.97
2023-03-12T21:44:06.446Z,33.40
2023-03-12T21:46:44.920Z,27.57
2023-03-12T21:49:22.209Z,23.40
2023-03-12T21:52:33.934Z,24.50
2023-03-12T21:55:13.869Z,25.37
2023-03-12T21:57:44.925Z,27.53
2023-03-12T22:00:23.089Z,28.90
2023-03-12T22:02:52.366Z,35.63
2023-03-12T22:05:26.823Z,21.47
2023-03-12T22:07:57.728Z,21.23
2023-03-12T22:10:43.606Z,25.50
2023-03-12T22:13:19.760Z,27.10
2023-03-12T22:15:57.126Z,26.30
2023-03-12T22:18:33.392Z,34.23
2023-03-12T22:21:07.843Z,33.30
2023-03-12T22:23:42.588Z,32.93
2023-03-12T22:26:32.414Z,25.27
2023-03-12T22:29:04.890Z,31.10
2023-03-12T22:31:34.440Z,27.97
2023-03-12T22:34:08.337Z,28.20
2023-03-12T22:36:55.669Z,31.37
2023-03-12T22:39:30.277Z,37.40
2023-03-12T22:42:01.002Z,27.33
2023-03-12T22:44:29.824Z,29.37
2023-03-12T22:46:58.295Z,27.43
2023-03-12T22:49:36.037Z,30.10
2023-03-12T22:52:19.144Z,28.20
2023-03-12T22:54:50.949Z,33.93
2023-03-12T22:57:22.009Z,29.23
2023-03-12T22:59:53.495Z,31.03
2023-03-12T23:02:21.831Z,33.13
2023-03-12T23:04:50.500Z,23.57
2023-03-12T23:07:42.260Z,21.90
2023-03-12T23:10:15.329Z,19.73
2023-03-12T23:12:48.804Z,16.30
2023-03-12T23:15:42.198Z,30.63
2023-03-12T23:18:35.503Z,24.03
2023-03-12T23:21:10.488Z,25.77
2023-03-12T23:23:43.038Z,24.97
2023-03-12T23:26:21.957Z,18.70
2023-03-12T23:28:54.836Z,21.07
2023-03-12T23:31:24.106Z,26.77
2023-03-12T23:34:12.759Z,21.03
2023-03-12T23:36:46.491Z,20.57
2023-03-12T23:39:16.550Z,24.57
2023-03-12T23:42:08.681Z,18.30
2023-03-12T23:44:42.744Z,20.57
2023-03-12T23:47:51.666Z,23.03
2023-03-12T23:51:05.641Z,20.73
2023-03-12T23:53:38.080Z,18.40
2023-03-12T23:56:09.009Z,24.73
2023-03-12T23:58:47.566Z,23.03
